sensor_id;sensor_type;location;lat;lon;timestamp;P1;durP1;ratioP1;P2;durP2;ratioP2
43998;SDS011;51319;52.162;5.302;2023-09-07T00:00:16;11.15;;;6.38;;
43998;SDS011;51319;52.162;5.302;2023-09-07T00:02:43;7.93;;;6.63;;
43998;SDS011;51319;52.162;5.302;2023-09-07T00:05:10;7.40;;;6.60;;
43998;SDS011;51319;52.162;5.302;2023-09-07T00:07:37;11.07;;;7.10;;
43998;SDS011;51319;52.162;5.302;2023-09-07T00:10:04;10.73;;;6.90;;
43998;SDS011;51319;52.162;5.302;2023-09-07T00:12:31;14.88;;;6.90;;
43998;SDS011;51319;52.162;5.302;2023-09-07T00:14:59;8.30;;;6.93;;
43998;SDS011;51319;52.162;5.302;2023-09-07T00:17:26;9.77;;;6.85;;
43998;SDS011;51319;52.162;5.302;2023-09-07T00:19:53;15.55;;;7.43;;
43998;SDS011;51319;52.162;5.302;2023-09-07T00:22:23;7.82;;;6.90;;
43998;SDS011;51319;52.162;5.302;2023-09-07T00:24:52;8.13;;;6.57;;
43998;SDS011;51319;52.162;5.302;2023-09-07T00:27:19;10.50;;;7.43;;
43998;SDS011;51319;52.162;5.302;2023-09-07T00:29:46;9.20;;;6.60;;
43998;SDS011;51319;52.162;5.302;2023-09-07T00:32:13;12.32;;;7.60;;
43998;SDS011;51319;52.162;5.302;2023-09-07T00:34:40;9.25;;;7.93;;
43998;SDS011;51319;52.162;5.302;2023-09-07T00:37:07;8.75;;;7.53;;
43998;SDS011;51319;52.162;5.302;2023-09-07T00:39:34;13.50;;;7.80;;
43998;SDS011;51319;52.162;5.302;2023-09-07T00:42:01;15.63;;;9.52;;
43998;SDS011;51319;52.162;5.302;2023-09-07T00:44:28;12.55;;;9.98;;
43998;SDS011;51319;52.162;5.302;2023-09-07T00:46:56;9.88;;;8.10;;
43998;SDS011;51319;52.162;5.302;2023-09-07T00:49:23;10.55;;;8.63;;
43998;SDS011;51319;52.162;5.302;2023-09-07T00:51:51;12.38;;;9.70;;
43998;SDS011;51319;52.162;5.302;2023-09-07T00:54:19;13.57;;;9.52;;
43998;SDS011;51319;52.162;5.302;2023-09-07T00:56:46;11.80;;;9.18;;
43998;SDS011;51319;52.162;5.302;2023-09-07T00:59:13;15.52;;;9.48;;
43998;SDS011;51319;52.162;5.302;2023-09-07T01:01:40;13.43;;;9.07;;
43998;SDS011;51319;52.162;5.302;2023-09-07T01:04:09;12.57;;;9.27;;
43998;SDS011;51319;52.162;5.302;2023-09-07T01:06:43;12.15;;;9.75;;
43998;SDS011;51319;52.162;5.302;2023-09-07T01:09:19;10.70;;;8.93;;
43998;SDS011;51319;52.162;5.302;2023-09-07T01:11:50;10.73;;;8.98;;
43998;SDS011;51319;52.162;5.302;2023-09-07T01:14:18;11.35;;;9.32;;
43998;SDS011;51319;52.162;5.302;2023-09-07T01:16:45;16.83;;;9.48;;
43998;SDS011;51319;52.162;5.302;2023-09-07T01:19:12;11.82;;;10.23;;
43998;SDS011;51319;52.162;5.302;2023-09-07T01:21:39;11.15;;;9.55;;
43998;SDS011;51319;52.162;5.302;2023-09-07T01:24:08;11.65;;;9.20;;
43998;SDS011;51319;52.162;5.302;2023-09-07T01:26:39;11.85;;;8.57;;
43998;SDS011;51319;52.162;5.302;2023-09-07T01:29:06;11.27;;;9.00;;
43998;SDS011;51319;52.162;5.302;2023-09-07T01:31:38;11.02;;;8.73;;
43998;SDS011;51319;52.162;5.302;2023-09-07T01:34:06;11.93;;;9.38;;
43998;SDS011;51319;52.162;5.302;2023-09-07T01:36:33;11.50;;;8.80;;
43998;SDS011;51319;52.162;5.302;2023-09-07T01:39:00;12.65;;;9.48;;
43998;SDS011;51319;52.162;5.302;2023-09-07T01:41:29;11.15;;;10.05;;
43998;SDS011;51319;52.162;5.302;2023-09-07T01:43:57;13.40;;;10.18;;
43998;SDS011;51319;52.162;5.302;2023-09-07T01:46:24;13.98;;;10.07;;
43998;SDS011;51319;52.162;5.302;2023-09-07T01:48:51;13.18;;;9.63;;
43998;SDS011;51319;52.162;5.302;2023-09-07T01:51:18;14.52;;;9.93;;
43998;SDS011;51319;52.162;5.302;2023-09-07T01:53:48;10.10;;;8.98;;
43998;SDS011;51319;52.162;5.302;2023-09-07T01:56:16;15.05;;;9.02;;
43998;SDS011;51319;52.162;5.302;2023-09-07T01:58:43;10.63;;;8.90;;
43998;SDS011;51319;52.162;5.302;2023-09-07T02:01:20;12.13;;;9.65;;
43998;SDS011;51319;52.162;5.302;2023-09-07T02:03:48;18.92;;;9.80;;
43998;SDS011;51319;52.162;5.302;2023-09-07T02:06:15;17.42;;;9.35;;
43998;SDS011;51319;52.162;5.302;2023-09-07T02:08:43;11.10;;;9.10;;
43998;SDS011;51319;52.162;5.302;2023-09-07T02:11:10;14.82;;;8.93;;
43998;SDS011;51319;52.162;5.302;2023-09-07T02:13:37;9.48;;;8.57;;
43998;SDS011;51319;52.162;5.302;2023-09-07T02:16:04;10.10;;;9.02;;
43998;SDS011;51319;52.162;5.302;2023-09-07T02:18:32;10.70;;;8.63;;
43998;SDS011;51319;52.162;5.302;2023-09-07T02:21:01;10.40;;;8.63;;
43998;SDS011;51319;52.162;5.302;2023-09-07T02:23:32;10.80;;;8.55;;
43998;SDS011;51319;52.162;5.302;2023-09-07T02:25:59;12.20;;;9.45;;
43998;SDS011;51319;52.162;5.302;2023-09-07T02:28:26;12.80;;;9.50;;
43998;SDS011;51319;52.162;5.302;2023-09-07T02:30:53;10.23;;;8.85;;
43998;SDS011;51319;52.162;5.302;2023-09-07T02:33:21;9.63;;;8.52;;
43998;SDS011;51319;52.162;5.302;2023-09-07T02:35:48;12.35;;;8.88;;
43998;SDS011;51319;52.162;5.302;2023-09-07T02:38:16;10.10;;;9.00;;
43998;SDS011;51319;52.162;5.302;2023-09-07T02:40:43;10.35;;;8.98;;
43998;SDS011;51319;52.162;5.302;2023-09-07T02:43:10;9.68;;;8.73;;
43998;SDS011;51319;52.162;5.302;2023-09-07T02:45:38;16.33;;;9.48;;
43998;SDS011;51319;52.162;5.302;2023-09-07T02:48:05;10.35;;;9.05;;
43998;SDS011;51319;52.162;5.302;2023-09-07T02:50:33;9.60;;;8.23;;
43998;SDS011;51319;52.162;5.302;2023-09-07T02:53:01;9.15;;;8.10;;
43998;SDS011;51319;52.162;5.302;2023-09-07T02:55:30;11.88;;;9.38;;
43998;SDS011;51319;52.162;5.302;2023-09-07T02:57:57;11.30;;;9.65;;
43998;SDS011;51319;52.162;5.302;2023-09-07T03:00:25;15.23;;;8.73;;
43998;SDS011;51319;52.162;5.302;2023-09-07T03:02:52;9.95;;;8.95;;
43998;SDS011;51319;52.162;5.302;2023-09-07T03:05:19;12.77;;;9.15;;
43998;SDS011;51319;52.162;5.302;2023-09-07T03:07:47;10.32;;;8.35;;
43998;SDS011;51319;52.162;5.302;2023-09-07T03:10:14;13.15;;;9.85;;
43998;SDS011;51319;52.162;5.302;2023-09-07T03:12:42;11.23;;;8.13;;
43998;SDS011;51319;52.162;5.302;2023-09-07T03:15:09;10.48;;;9.05;;
43998;SDS011;51319;52.162;5.302;2023-09-07T03:17:36;11.40;;;8.57;;
43998;SDS011;51319;52.162;5.302;2023-09-07T03:20:03;12.13;;;9.23;;
43998;SDS011;51319;52.162;5.302;2023-09-07T03:22:41;10.25;;;8.98;;
43998;SDS011;51319;52.162;5.302;2023-09-07T03:25:08;11.40;;;8.52;;
43998;SDS011;51319;52.162;5.302;2023-09-07T03:27:40;11.45;;;8.93;;
43998;SDS011;51319;52.162;5.302;2023-09-07T03:30:07;12.18;;;8.93;;
43998;SDS011;51319;52.162;5.302;2023-09-07T03:32:34;10.07;;;9.07;;
43998;SDS011;51319;52.162;5.302;2023-09-07T03:35:02;13.63;;;8.77;;
43998;SDS011;51319;52.162;5.302;2023-09-07T03:37:33;15.45;;;9.15;;
43998;SDS011;51319;52.162;5.302;2023-09-07T03:40:00;11.95;;;8.73;;
43998;SDS011;51319;52.162;5.302;2023-09-07T03:42:27;10.63;;;8.75;;
43998;SDS011;51319;52.162;5.302;2023-09-07T03:44:55;13.05;;;9.45;;
43998;SDS011;51319;52.162;5.302;2023-09-07T03:47:22;11.10;;;9.15;;
43998;SDS011;51319;52.162;5.302;2023-09-07T03:49:55;10.25;;;9.25;;
43998;SDS011;51319;52.162;5.302;2023-09-07T03:52:27;11.00;;;9.73;;
43998;SDS011;51319;52.162;5.302;2023-09-07T03:54:54;12.75;;;10.20;;
43998;SDS011;51319;52.162;5.302;2023-09-07T03:57:25;10.73;;;8.40;;
43998;SDS011;51319;52.162;5.302;2023-09-07T03:59:52;21.55;;;9.60;;
43998;SDS011;51319;52.162;5.302;2023-09-07T04:02:21;14.88;;;9.98;;
43998;SDS011;51319;52.162;5.302;2023-09-07T04:04:53;12.55;;;11.05;;
43998;SDS011;51319;52.162;5.302;2023-09-07T04:07:21;14.52;;;11.55;;
43998;SDS011;51319;52.162;5.302;2023-09-07T04:09:49;12.85;;;9.95;;
43998;SDS011;51319;52.162;5.302;2023-09-07T04:12:17;13.18;;;10.50;;
43998;SDS011;51319;52.162;5.302;2023-09-07T04:14:44;10.82;;;9.23;;
43998;SDS011;51319;52.162;5.302;2023-09-07T04:17:11;14.55;;;9.85;;
43998;SDS011;51319;52.162;5.302;2023-09-07T04:19:38;11.20;;;9.55;;
43998;SDS011;51319;52.162;5.302;2023-09-07T04:22:05;10.93;;;9.80;;
43998;SDS011;51319;52.162;5.302;2023-09-07T04:24:32;11.00;;;9.80;;
43998;SDS011;51319;52.162;5.302;2023-09-07T04:26:59;11.45;;;10.25;;
43998;SDS011;51319;52.162;5.302;2023-09-07T04:29:28;14.98;;;11.63;;
43998;SDS011;51319;52.162;5.302;2023-09-07T04:31:55;14.75;;;10.30;;
43998;SDS011;51319;52.162;5.302;2023-09-07T04:34:22;13.27;;;10.10;;
43998;SDS011;51319;52.162;5.302;2023-09-07T04:36:49;12.48;;;9.98;;
43998;SDS011;51319;52.162;5.302;2023-09-07T04:39:18;12.15;;;10.80;;
43998;SDS011;51319;52.162;5.302;2023-09-07T04:41:45;11.95;;;10.52;;
43998;SDS011;51319;52.162;5.302;2023-09-07T04:44:12;11.57;;;10.05;;
43998;SDS011;51319;52.162;5.302;2023-09-07T04:46:39;11.60;;;10.50;;
43998;SDS011;51319;52.162;5.302;2023-09-07T04:49:06;12.55;;;10.82;;
43998;SDS011;51319;52.162;5.302;2023-09-07T04:51:34;12.30;;;10.65;;
43998;SDS011;51319;52.162;5.302;2023-09-07T04:54:01;12.25;;;10.25;;
43998;SDS011;51319;52.162;5.302;2023-09-07T04:56:28;12.13;;;10.82;;
43998;SDS011;51319;52.162;5.302;2023-09-07T04:58:55;15.13;;;11.00;;
43998;SDS011;51319;52.162;5.302;2023-09-07T05:01:22;11.65;;;10.13;;
43998;SDS011;51319;52.162;5.302;2023-09-07T05:03:49;13.88;;;10.65;;
43998;SDS011;51319;52.162;5.302;2023-09-07T05:06:17;13.07;;;10.13;;
43998;SDS011;51319;52.162;5.302;2023-09-07T05:08:44;12.90;;;10.68;;
43998;SDS011;51319;52.162;5.302;2023-09-07T05:11:11;10.60;;;9.55;;
43998;SDS011;51319;52.162;5.302;2023-09-07T05:13:38;12.35;;;9.98;;
43998;SDS011;51319;52.162;5.302;2023-09-07T05:16:06;11.77;;;9.23;;
43998;SDS011;51319;52.162;5.302;2023-09-07T05:18:33;16.13;;;10.52;;
43998;SDS011;51319;52.162;5.302;2023-09-07T05:21:00;15.07;;;10.13;;
43998;SDS011;51319;52.162;5.302;2023-09-07T05:23:27;19.00;;;9.65;;
43998;SDS011;51319;52.162;5.302;2023-09-07T05:25:54;14.50;;;9.75;;
43998;SDS011;51319;52.162;5.302;2023-09-07T05:28:22;12.23;;;9.43;;
43998;SDS011;51319;52.162;5.302;2023-09-07T05:30:49;10.00;;;8.65;;
43998;SDS011;51319;52.162;5.302;2023-09-07T05:33:17;11.52;;;9.88;;
43998;SDS011;51319;52.162;5.302;2023-09-07T05:35:45;12.23;;;9.55;;
43998;SDS011;51319;52.162;5.302;2023-09-07T05:38:12;10.55;;;9.50;;
43998;SDS011;51319;52.162;5.302;2023-09-07T05:40:40;14.00;;;9.18;;
43998;SDS011;51319;52.162;5.302;2023-09-07T05:43:09;11.70;;;8.85;;
43998;SDS011;51319;52.162;5.302;2023-09-07T05:45:38;11.73;;;9.35;;
43998;SDS011;51319;52.162;5.302;2023-09-07T05:48:06;10.20;;;8.23;;
43998;SDS011;51319;52.162;5.302;2023-09-07T05:50:34;10.18;;;8.15;;
43998;SDS011;51319;52.162;5.302;2023-09-07T05:53:02;12.27;;;7.80;;
43998;SDS011;51319;52.162;5.302;2023-09-07T05:55:30;16.73;;;8.10;;
43998;SDS011;51319;52.162;5.302;2023-09-07T05:57:58;15.40;;;8.52;;
43998;SDS011;51319;52.162;5.302;2023-09-07T06:00:30;13.32;;;7.93;;
43998;SDS011;51319;52.162;5.302;2023-09-07T06:02:57;9.73;;;7.88;;
43998;SDS011;51319;52.162;5.302;2023-09-07T06:05:25;12.25;;;8.07;;
43998;SDS011;51319;52.162;5.302;2023-09-07T06:07:52;10.80;;;8.32;;
43998;SDS011;51319;52.162;5.302;2023-09-07T06:10:19;13.65;;;7.88;;
43998;SDS011;51319;52.162;5.302;2023-09-07T06:12:46;14.55;;;8.07;;
43998;SDS011;51319;52.162;5.302;2023-09-07T06:15:14;10.82;;;7.93;;
43998;SDS011;51319;52.162;5.302;2023-09-07T06:17:42;16.48;;;9.15;;
43998;SDS011;51319;52.162;5.302;2023-09-07T06:20:12;12.80;;;8.60;;
43998;SDS011;51319;52.162;5.302;2023-09-07T06:22:39;12.38;;;7.70;;
43998;SDS011;51319;52.162;5.302;2023-09-07T06:25:06;12.63;;;8.10;;
43998;SDS011;51319;52.162;5.302;2023-09-07T06:27:34;11.00;;;8.32;;
43998;SDS011;51319;52.162;5.302;2023-09-07T06:30:00;10.30;;;8.40;;
43998;SDS011;51319;52.162;5.302;2023-09-07T06:32:28;10.80;;;7.68;;
43998;SDS011;51319;52.162;5.302;2023-09-07T06:34:55;10.45;;;7.43;;
43998;SDS011;51319;52.162;5.302;2023-09-07T06:37:22;10.88;;;6.88;;
43998;SDS011;51319;52.162;5.302;2023-09-07T06:39:51;11.40;;;7.38;;
43998;SDS011;51319;52.162;5.302;2023-09-07T06:42:18;14.02;;;7.18;;
43998;SDS011;51319;52.162;5.302;2023-09-07T06:44:45;14.02;;;7.28;;
43998;SDS011;51319;52.162;5.302;2023-09-07T06:47:12;12.55;;;7.28;;
43998;SDS011;51319;52.162;5.302;2023-09-07T06:49:39;10.43;;;7.15;;
43998;SDS011;51319;52.162;5.302;2023-09-07T06:52:06;13.07;;;6.03;;
43998;SDS011;51319;52.162;5.302;2023-09-07T06:54:33;8.23;;;6.32;;
43998;SDS011;51319;52.162;5.302;2023-09-07T06:57:00;11.05;;;5.65;;
43998;SDS011;51319;52.162;5.302;2023-09-07T06:59:27;7.60;;;6.38;;
43998;SDS011;51319;52.162;5.302;2023-09-07T07:01:54;10.98;;;6.80;;
43998;SDS011;51319;52.162;5.302;2023-09-07T07:04:22;28.08;;;10.82;;
43998;SDS011;51319;52.162;5.302;2023-09-07T07:06:49;12.00;;;7.50;;
43998;SDS011;51319;52.162;5.302;2023-09-07T07:09:16;9.07;;;6.80;;
43998;SDS011;51319;52.162;5.302;2023-09-07T07:11:43;13.32;;;6.70;;
43998;SDS011;51319;52.162;5.302;2023-09-07T07:14:10;8.13;;;6.53;;
43998;SDS011;51319;52.162;5.302;2023-09-07T07:16:38;11.05;;;6.68;;
43998;SDS011;51319;52.162;5.302;2023-09-07T07:19:05;12.35;;;6.97;;
43998;SDS011;51319;52.162;5.302;2023-09-07T07:21:32;16.65;;;7.38;;
43998;SDS011;51319;52.162;5.302;2023-09-07T07:23:59;21.70;;;10.35;;
43998;SDS011;51319;52.162;5.302;2023-09-07T07:26:26;13.00;;;6.43;;
43998;SDS011;51319;52.162;5.302;2023-09-07T07:28:53;10.60;;;5.65;;
43998;SDS011;51319;52.162;5.302;2023-09-07T07:39:26;13.45;;;4.93;;
43998;SDS011;51319;52.162;5.302;2023-09-07T07:41:53;8.25;;;4.60;;
43998;SDS011;51319;52.162;5.302;2023-09-07T07:44:21;9.95;;;4.32;;
43998;SDS011;51319;52.162;5.302;2023-09-07T07:46:48;7.40;;;4.10;;
43998;SDS011;51319;52.162;5.302;2023-09-07T07:49:16;5.38;;;3.90;;
43998;SDS011;51319;52.162;5.302;2023-09-07T07:51:45;9.18;;;4.35;;
43998;SDS011;51319;52.162;5.302;2023-09-07T07:54:12;7.05;;;4.03;;
43998;SDS011;51319;52.162;5.302;2023-09-07T07:56:39;12.65;;;4.13;;
43998;SDS011;51319;52.162;5.302;2023-09-07T07:59:07;7.38;;;3.45;;
43998;SDS011;51319;52.162;5.302;2023-09-07T08:01:34;5.97;;;4.30;;
43998;SDS011;51319;52.162;5.302;2023-09-07T08:04:03;12.00;;;4.57;;
43998;SDS011;51319;52.162;5.302;2023-09-07T08:06:30;10.27;;;3.65;;
43998;SDS011;51319;52.162;5.302;2023-09-07T08:08:57;7.05;;;3.42;;
43998;SDS011;51319;52.162;5.302;2023-09-07T08:11:24;8.82;;;3.60;;
43998;SDS011;51319;52.162;5.302;2023-09-07T08:13:52;8.20;;;3.70;;
43998;SDS011;51319;52.162;5.302;2023-09-07T08:16:20;6.25;;;3.22;;
43998;SDS011;51319;52.162;5.302;2023-09-07T08:18:47;12.85;;;4.18;;
43998;SDS011;51319;52.162;5.302;2023-09-07T08:21:14;5.78;;;3.63;;
43998;SDS011;51319;52.162;5.302;2023-09-07T08:23:41;7.75;;;3.65;;
43998;SDS011;51319;52.162;5.302;2023-09-07T08:31:24;5.32;;;3.03;;
43998;SDS011;51319;52.162;5.302;2023-09-07T08:33:53;5.28;;;3.40;;
43998;SDS011;51319;52.162;5.302;2023-09-07T08:41:38;5.00;;;3.55;;
43998;SDS011;51319;52.162;5.302;2023-09-07T08:49:47;4.88;;;3.33;;
43998;SDS011;51319;52.162;5.302;2023-09-07T08:57:35;6.07;;;3.53;;
43998;SDS011;51319;52.162;5.302;2023-09-07T09:00:04;7.15;;;3.10;;
43998;SDS011;51319;52.162;5.302;2023-09-07T09:02:35;4.35;;;3.03;;
43998;SDS011;51319;52.162;5.302;2023-09-07T09:37:48;6.30;;;2.80;;
43998;SDS011;51319;52.162;5.302;2023-09-07T09:40:16;5.22;;;2.50;;
43998;SDS011;51319;52.162;5.302;2023-09-07T09:42:43;4.93;;;2.67;;
43998;SDS011;51319;52.162;5.302;2023-09-07T09:45:11;4.78;;;2.22;;
43998;SDS011;51319;52.162;5.302;2023-09-07T09:47:39;4.05;;;2.20;;
43998;SDS011;51319;52.162;5.302;2023-09-07T09:52:37;5.55;;;2.25;;
43998;SDS011;51319;52.162;5.302;2023-09-07T09:55:07;2.85;;;2.10;;
43998;SDS011;51319;52.162;5.302;2023-09-07T09:57:35;6.60;;;2.10;;
43998;SDS011;51319;52.162;5.302;2023-09-07T10:00:05;6.22;;;2.00;;
43998;SDS011;51319;52.162;5.302;2023-09-07T10:02:47;2.17;;;1.73;;
43998;SDS011;51319;52.162;5.302;2023-09-07T10:05:17;8.82;;;2.20;;
43998;SDS011;51319;52.162;5.302;2023-09-07T10:07:49;2.80;;;1.85;;
43998;SDS011;51319;52.162;5.302;2023-09-07T10:10:18;5.55;;;2.03;;
43998;SDS011;51319;52.162;5.302;2023-09-07T10:12:55;3.47;;;1.80;;
43998;SDS011;51319;52.162;5.302;2023-09-07T10:15:23;4.75;;;1.73;;
43998;SDS011;51319;52.162;5.302;2023-09-07T10:48:02;3.53;;;1.73;;
43998;SDS011;51319;52.162;5.302;2023-09-07T10:50:43;2.55;;;1.95;;
43998;SDS011;51319;52.162;5.302;2023-09-07T10:53:13;3.15;;;1.92;;
43998;SDS011;51319;52.162;5.302;2023-09-07T10:55:41;5.00;;;2.00;;
43998;SDS011;51319;52.162;5.302;2023-09-07T10:58:11;5.55;;;2.05;;
43998;SDS011;51319;52.162;5.302;2023-09-07T11:03:22;5.78;;;2.10;;
43998;SDS011;51319;52.162;5.302;2023-09-07T11:06:17;12.00;;;2.15;;
43998;SDS011;51319;52.162;5.302;2023-09-07T11:19:53;3.85;;;2.00;;
43998;SDS011;51319;52.162;5.302;2023-09-07T11:22:32;4.78;;;1.85;;
43998;SDS011;51319;52.162;5.302;2023-09-07T11:24:59;2.45;;;2.00;;
43998;SDS011;51319;52.162;5.302;2023-09-07T11:27:34;5.72;;;1.83;;
43998;SDS011;51319;52.162;5.302;2023-09-07T11:30:01;2.95;;;1.70;;
43998;SDS011;51319;52.162;5.302;2023-09-07T11:32:33;5.22;;;1.73;;
43998;SDS011;51319;52.162;5.302;2023-09-07T11:35:00;8.88;;;2.03;;
43998;SDS011;51319;52.162;5.302;2023-09-07T11:37:28;3.83;;;2.03;;
43998;SDS011;51319;52.162;5.302;2023-09-07T11:39:55;4.57;;;1.92;;
43998;SDS011;51319;52.162;5.302;2023-09-07T11:42:22;4.28;;;1.65;;
43998;SDS011;51319;52.162;5.302;2023-09-07T11:44:52;3.50;;;1.98;;
43998;SDS011;51319;52.162;5.302;2023-09-07T11:47:19;7.80;;;2.17;;
43998;SDS011;51319;52.162;5.302;2023-09-07T11:49:46;6.20;;;2.08;;
43998;SDS011;51319;52.162;5.302;2023-09-07T12:05:27;4.45;;;2.13;;
43998;SDS011;51319;52.162;5.302;2023-09-07T12:07:54;2.70;;;1.73;;
43998;SDS011;51319;52.162;5.302;2023-09-07T12:10:21;2.65;;;2.08;;
43998;SDS011;51319;52.162;5.302;2023-09-07T12:12:48;2.47;;;1.70;;
43998;SDS011;51319;52.162;5.302;2023-09-07T12:15:16;2.05;;;1.83;;
43998;SDS011;51319;52.162;5.302;2023-09-07T12:20:11;4.40;;;2.30;;
43998;SDS011;51319;52.162;5.302;2023-09-07T12:22:41;5.57;;;2.75;;
43998;SDS011;51319;52.162;5.302;2023-09-07T12:25:08;2.72;;;2.20;;
43998;SDS011;51319;52.162;5.302;2023-09-07T12:27:44;3.58;;;2.15;;
43998;SDS011;51319;52.162;5.302;2023-09-07T12:30:17;4.43;;;2.28;;
43998;SDS011;51319;52.162;5.302;2023-09-07T12:32:47;2.90;;;2.38;;
43998;SDS011;51319;52.162;5.302;2023-09-07T12:35:14;10.07;;;2.28;;
43998;SDS011;51319;52.162;5.302;2023-09-07T12:37:42;6.00;;;2.03;;
43998;SDS011;51319;52.162;5.302;2023-09-07T12:40:10;3.83;;;1.75;;
43998;SDS011;51319;52.162;5.302;2023-09-07T12:42:40;3.20;;;1.85;;
43998;SDS011;51319;52.162;5.302;2023-09-07T12:47:38;2.80;;;2.08;;
43998;SDS011;51319;52.162;5.302;2023-09-07T12:50:06;4.38;;;2.30;;
43998;SDS011;51319;52.162;5.302;2023-09-07T12:52:34;4.05;;;1.80;;
43998;SDS011;51319;52.162;5.302;2023-09-07T12:55:08;8.60;;;1.80;;
43998;SDS011;51319;52.162;5.302;2023-09-07T12:57:38;6.72;;;2.10;;
43998;SDS011;51319;52.162;5.302;2023-09-07T13:24:30;7.70;;;1.98;;
43998;SDS011;51319;52.162;5.302;2023-09-07T13:26:58;2.00;;;1.70;;
43998;SDS011;51319;52.162;5.302;2023-09-07T13:29:26;3.97;;;1.90;;
43998;SDS011;51319;52.162;5.302;2023-09-07T13:31:53;3.40;;;2.00;;
43998;SDS011;51319;52.162;5.302;2023-09-07T13:50:42;5.47;;;2.00;;
43998;SDS011;51319;52.162;5.302;2023-09-07T13:53:09;3.03;;;1.70;;
43998;SDS011;51319;52.162;5.302;2023-09-07T14:17:33;2.97;;;2.05;;
43998;SDS011;51319;52.162;5.302;2023-09-07T14:20:00;4.25;;;2.00;;
43998;SDS011;51319;52.162;5.302;2023-09-07T14:22:30;4.40;;;2.20;;
43998;SDS011;51319;52.162;5.302;2023-09-07T14:24:58;2.40;;;2.17;;
43998;SDS011;51319;52.162;5.302;2023-09-07T14:27:25;8.93;;;2.42;;
43998;SDS011;51319;52.162;5.302;2023-09-07T14:29:52;3.70;;;2.13;;
43998;SDS011;51319;52.162;5.302;2023-09-07T14:32:19;4.32;;;2.10;;
43998;SDS011;51319;52.162;5.302;2023-09-07T14:34:46;4.00;;;2.60;;
43998;SDS011;51319;52.162;5.302;2023-09-07T14:37:13;3.72;;;2.25;;
43998;SDS011;51319;52.162;5.302;2023-09-07T14:45:11;3.65;;;2.38;;
43998;SDS011;51319;52.162;5.302;2023-09-07T14:47:40;7.30;;;2.72;;
43998;SDS011;51319;52.162;5.302;2023-09-07T14:50:08;4.03;;;2.20;;
43998;SDS011;51319;52.162;5.302;2023-09-07T15:17:21;9.15;;;2.78;;
43998;SDS011;51319;52.162;5.302;2023-09-07T15:19:49;3.80;;;2.88;;
43998;SDS011;51319;52.162;5.302;2023-09-07T15:22:19;6.40;;;2.92;;
43998;SDS011;51319;52.162;5.302;2023-09-07T15:24:46;7.18;;;2.42;;
43998;SDS011;51319;52.162;5.302;2023-09-07T15:27:14;4.55;;;2.70;;
43998;SDS011;51319;52.162;5.302;2023-09-07T15:29:41;3.17;;;2.60;;
43998;SDS011;51319;52.162;5.302;2023-09-07T15:32:10;4.85;;;2.65;;
43998;SDS011;51319;52.162;5.302;2023-09-07T15:34:37;4.25;;;2.50;;
43998;SDS011;51319;52.162;5.302;2023-09-07T15:47:54;3.40;;;3.08;;
43998;SDS011;51319;52.162;5.302;2023-09-07T15:50:21;7.72;;;3.20;;
43998;SDS011;51319;52.162;5.302;2023-09-07T15:52:51;8.02;;;5.55;;
43998;SDS011;51319;52.162;5.302;2023-09-07T15:55:18;6.25;;;3.17;;
43998;SDS011;51319;52.162;5.302;2023-09-07T15:57:45;4.55;;;2.85;;
43998;SDS011;51319;52.162;5.302;2023-09-07T16:00:14;9.23;;;3.45;;
43998;SDS011;51319;52.162;5.302;2023-09-07T16:02:43;5.13;;;2.78;;
43998;SDS011;51319;52.162;5.302;2023-09-07T16:05:17;3.55;;;3.13;;
43998;SDS011;51319;52.162;5.302;2023-09-07T16:10:35;9.25;;;3.65;;
43998;SDS011;51319;52.162;5.302;2023-09-07T16:13:02;5.53;;;3.53;;
43998;SDS011;51319;52.162;5.302;2023-09-07T16:15:30;5.63;;;3.38;;
43998;SDS011;51319;52.162;5.302;2023-09-07T16:18:00;3.45;;;3.13;;
43998;SDS011;51319;52.162;5.302;2023-09-07T16:20:27;4.80;;;3.30;;
43998;SDS011;51319;52.162;5.302;2023-09-07T16:22:54;10.70;;;9.15;;
43998;SDS011;51319;52.162;5.302;2023-09-07T16:25:21;6.78;;;3.72;;
43998;SDS011;51319;52.162;5.302;2023-09-07T16:27:48;11.00;;;3.63;;
43998;SDS011;51319;52.162;5.302;2023-09-07T16:30:18;6.30;;;3.50;;
43998;SDS011;51319;52.162;5.302;2023-09-07T16:32:45;6.88;;;3.35;;
43998;SDS011;51319;52.162;5.302;2023-09-07T16:35:12;9.70;;;3.30;;
43998;SDS011;51319;52.162;5.302;2023-09-07T16:37:40;6.07;;;3.67;;
43998;SDS011;51319;52.162;5.302;2023-09-07T16:40:07;6.30;;;3.42;;
43998;SDS011;51319;52.162;5.302;2023-09-07T16:42:36;6.28;;;3.15;;
43998;SDS011;51319;52.162;5.302;2023-09-07T16:45:03;10.60;;;4.07;;
43998;SDS011;51319;52.162;5.302;2023-09-07T16:47:37;8.00;;;3.30;;
43998;SDS011;51319;52.162;5.302;2023-09-07T16:50:04;6.13;;;3.40;;
43998;SDS011;51319;52.162;5.302;2023-09-07T16:55:22;5.78;;;3.28;;
43998;SDS011;51319;52.162;5.302;2023-09-07T17:00:33;6.45;;;3.40;;
43998;SDS011;51319;52.162;5.302;2023-09-07T17:03:06;5.28;;;3.35;;
43998;SDS011;51319;52.162;5.302;2023-09-07T17:05:54;10.43;;;3.55;;
43998;SDS011;51319;52.162;5.302;2023-09-07T17:08:22;4.80;;;3.22;;
43998;SDS011;51319;52.162;5.302;2023-09-07T17:10:51;14.93;;;3.97;;
43998;SDS011;51319;52.162;5.302;2023-09-07T17:13:18;7.20;;;3.58;;
43998;SDS011;51319;52.162;5.302;2023-09-07T17:15:48;8.90;;;3.60;;
43998;SDS011;51319;52.162;5.302;2023-09-07T17:18:19;6.20;;;4.13;;
43998;SDS011;51319;52.162;5.302;2023-09-07T17:20:46;6.82;;;3.60;;
43998;SDS011;51319;52.162;5.302;2023-09-07T17:23:28;7.45;;;3.28;;
43998;SDS011;51319;52.162;5.302;2023-09-07T17:25:59;3.90;;;3.53;;
43998;SDS011;51319;52.162;5.302;2023-09-07T17:28:29;6.65;;;3.78;;
43998;SDS011;51319;52.162;5.302;2023-09-07T17:39:14;8.48;;;3.08;;
43998;SDS011;51319;52.162;5.302;2023-09-07T17:41:42;4.47;;;3.72;;
43998;SDS011;51319;52.162;5.302;2023-09-07T17:52:12;5.45;;;3.83;;
43998;SDS011;51319;52.162;5.302;2023-09-07T17:54:40;6.80;;;3.83;;
43998;SDS011;51319;52.162;5.302;2023-09-07T17:57:08;6.97;;;3.58;;
43998;SDS011;51319;52.162;5.302;2023-09-07T17:59:35;6.53;;;3.60;;
43998;SDS011;51319;52.162;5.302;2023-09-07T18:02:03;10.43;;;4.03;;
43998;SDS011;51319;52.162;5.302;2023-09-07T18:07:31;6.57;;;4.38;;
43998;SDS011;51319;52.162;5.302;2023-09-07T18:10:01;6.82;;;3.70;;
43998;SDS011;51319;52.162;5.302;2023-09-07T18:12:30;6.40;;;4.03;;
43998;SDS011;51319;52.162;5.302;2023-09-07T18:15:06;12.05;;;4.03;;
43998;SDS011;51319;52.162;5.302;2023-09-07T18:17:33;6.32;;;4.30;;
43998;SDS011;51319;52.162;5.302;2023-09-07T18:20:02;7.60;;;4.32;;
43998;SDS011;51319;52.162;5.302;2023-09-07T18:22:32;6.55;;;4.15;;
43998;SDS011;51319;52.162;5.302;2023-09-07T18:25:13;5.32;;;4.07;;
43998;SDS011;51319;52.162;5.302;2023-09-07T18:27:41;8.07;;;4.32;;
43998;SDS011;51319;52.162;5.302;2023-09-07T18:30:09;4.65;;;3.78;;
43998;SDS011;51319;52.162;5.302;2023-09-07T18:32:42;5.18;;;4.45;;
43998;SDS011;51319;52.162;5.302;2023-09-07T18:35:13;11.93;;;5.13;;
43998;SDS011;51319;52.162;5.302;2023-09-07T18:37:45;9.52;;;4.65;;
43998;SDS011;51319;52.162;5.302;2023-09-07T18:40:20;10.45;;;5.07;;
43998;SDS011;51319;52.162;5.302;2023-09-07T18:42:53;8.38;;;4.55;;
43998;SDS011;51319;52.162;5.302;2023-09-07T18:47:56;8.50;;;4.97;;
43998;SDS011;51319;52.162;5.302;2023-09-07T18:50:25;7.18;;;4.50;;
43998;SDS011;51319;52.162;5.302;2023-09-07T18:52:54;12.23;;;4.78;;
43998;SDS011;51319;52.162;5.302;2023-09-07T18:55:28;6.80;;;4.50;;
43998;SDS011;51319;52.162;5.302;2023-09-07T18:58:03;11.93;;;4.70;;
43998;SDS011;51319;52.162;5.302;2023-09-07T19:00:30;11.63;;;4.80;;
43998;SDS011;51319;52.162;5.302;2023-09-07T19:02:57;7.20;;;4.93;;
43998;SDS011;51319;52.162;5.302;2023-09-07T19:05:25;7.43;;;4.85;;
43998;SDS011;51319;52.162;5.302;2023-09-07T19:07:52;8.98;;;4.35;;